createdAt,value
2018-09-28T00:00:54.449Z,83.10
2018-09-28T00:03:25.508Z,71.50
2018-09-28T00:05:56.293Z,79.30
2018-09-28T00:08:33.598Z,88.90
2018-09-28T00:11:03.853Z,90.80
2018-09-28T00:13:34.661Z,88.80
2018-09-28T00:16:05.239Z,99.90
2018-09-28T00:18:36.043Z,93.60
2018-09-28T00:21:06.971Z,99.90
2018-09-28T00:23:37.362Z,99.90
2018-09-28T00:26:08.689Z,99.90
2018-09-28T00:28:39.191Z,99.90
2018-09-28T00:31:10.174Z,99.90
2018-09-28T00:33:40.691Z,99.90
2018-09-28T00:36:11.357Z,99.90
2018-09-28T00:38:41.988Z,99.90
2018-09-28T00:41:12.498Z,99.90
2018-09-28T00:43:43.861Z,99.90
2018-09-28T00:46:14.849Z,99.90
2018-09-28T00:48:45.417Z,99.90
2018-09-28T00:51:16.124Z,99.90
2018-09-28T00:53:47.358Z,99.90
2018-09-28T00:56:18.051Z,99.90
2018-09-28T00:58:49.211Z,99.90
2018-09-28T01:01:19.493Z,99.90
2018-09-28T01:03:50.594Z,99.90
2018-09-28T01:06:21.517Z,99.90
2018-09-28T01:08:52.106Z,99.90
2018-09-28T01:11:23.579Z,99.90
2018-09-28T01:13:54.391Z,99.90
2018-09-28T01:16:24.965Z,99.90
2018-09-28T01:18:55.936Z,99.90
2018-09-28T01:21:27.125Z,99.90
2018-09-28T01:23:57.617Z,99.90
2018-09-28T01:26:28.311Z,99.90
2018-09-28T01:28:58.899Z,99.90
2018-09-28T01:31:29.661Z,99.90
2018-09-28T01:34:00.155Z,99.90
2018-09-28T01:36:30.657Z,99.90
2018-09-28T01:39:01.157Z,99.90
2018-09-28T01:41:31.871Z,99.90
2018-09-28T01:44:02.776Z,99.90
2018-09-28T01:46:33.307Z,99.90
2018-09-28T01:49:04.600Z,99.90
2018-09-28T01:51:55.280Z,99.90
2018-09-28T01:54:25.646Z,99.90
2018-09-28T01:56:57.861Z,99.90
2018-09-28T01:59:29.869Z,99.90
2018-09-28T02:02:00.662Z,99.90
2018-09-28T02:04:31.320Z,99.90
2018-09-28T02:07:01.943Z,99.90
2018-09-28T02:09:32.492Z,99.90
2018-09-28T02:12:03.601Z,99.90
2018-09-28T02:14:34.661Z,99.90
2018-09-28T02:17:05.406Z,99.90
2018-09-28T02:19:35.873Z,99.90
2018-09-28T02:22:07.285Z,99.90
2018-09-28T02:24:38.641Z,99.90
2018-09-28T02:27:09.368Z,99.90
2018-09-28T02:29:40.125Z,99.90
2018-09-28T02:32:11.254Z,99.90
2018-09-28T02:34:42.116Z,99.90
2018-09-28T02:37:12.996Z,99.90
2018-09-28T02:39:43.877Z,99.90
2018-09-28T02:42:15.334Z,99.90
2018-09-28T02:44:46.086Z,99.90
2018-09-28T02:47:16.361Z,99.90
2018-09-28T02:49:46.540Z,99.90
2018-09-28T02:52:16.839Z,99.90
2018-09-28T02:54:46.939Z,99.90
2018-09-28T02:57:17.411Z,99.90
2018-09-28T02:59:47.810Z,99.90
2018-09-28T03:02:18.105Z,99.90
2018-09-28T03:04:48.503Z,99.90
2018-09-28T03:07:18.694Z,99.90
2018-09-28T03:09:48.991Z,99.90
2018-09-28T03:12:19.188Z,99.90
2018-09-28T03:14:49.567Z,99.90
2018-09-28T03:17:19.858Z,99.90
2018-09-28T03:19:50.119Z,99.90
2018-09-28T03:22:20.331Z,99.90
2018-09-28T03:24:50.726Z,99.90
2018-09-28T03:27:20.888Z,99.90
2018-09-28T03:29:51.228Z,99.90
2018-09-28T03:32:21.386Z,99.90
2018-09-28T03:34:51.530Z,99.90
2018-09-28T03:37:22.267Z,99.90
2018-09-28T03:39:52.658Z,99.90
2018-09-28T03:42:22.890Z,99.90
2018-09-28T03:44:53.638Z,99.90
2018-09-28T03:47:24.124Z,99.90
2018-09-28T03:49:54.433Z,99.90
2018-09-28T03:52:24.624Z,99.90
2018-09-28T03:54:55.389Z,99.90
2018-09-28T03:57:25.604Z,99.90
2018-09-28T03:59:56.092Z,99.90
2018-09-28T04:02:26.318Z,99.90
2018-09-28T04:04:56.845Z,99.90
2018-09-28T04:07:27.111Z,99.90
2018-09-28T04:09:57.679Z,99.90
2018-09-28T04:12:28.226Z,99.90
2018-09-28T04:14:59.875Z,99.90
2018-09-28T04:17:30.426Z,99.90
2018-09-28T04:20:00.717Z,99.90
2018-09-28T04:22:31.371Z,99.90
2018-09-28T04:25:01.791Z,99.90
2018-09-28T04:27:32.148Z,99.90
2018-09-28T04:30:03.293Z,99.90
2018-09-28T04:32:33.470Z,99.90
2018-09-28T04:35:04.080Z,99.90
2018-09-28T04:37:34.568Z,99.90
2018-09-28T04:40:05.616Z,99.90
2018-09-28T04:42:36.258Z,99.90
2018-09-28T04:45:06.568Z,99.90
2018-09-28T04:47:37.155Z,99.90
2018-09-28T04:50:08.454Z,99.90
2018-09-28T04:52:38.874Z,99.90
2018-09-28T04:55:09.190Z,99.90
2018-09-28T04:57:39.621Z,99.90
2018-09-28T05:00:10.626Z,1.00
2018-09-28T05:02:40.997Z,1.00
2018-09-28T05:05:11.950Z,1.00
2018-09-28T05:07:42.315Z,1.00
2018-09-28T05:10:13.605Z,1.00
2018-09-28T05:12:44.147Z,1.00
2018-09-28T05:15:15.255Z,1.00
2018-09-28T05:17:45.659Z,99.90
2018-09-28T05:20:16.297Z,99.90
2018-09-28T05:22:47.710Z,99.90
2018-09-28T05:25:18.244Z,99.90
2018-09-28T05:27:48.694Z,99.90
2018-09-28T05:30:19.278Z,99.90
2018-09-28T05:32:50.657Z,99.90
2018-09-28T05:35:21.151Z,99.90
2018-09-28T05:37:52.130Z,99.90
2018-09-28T05:40:22.836Z,99.90
2018-09-28T05:42:53.905Z,99.90
2018-09-28T05:45:24.688Z,99.90
2018-09-28T05:47:55.818Z,99.90
2018-09-28T05:50:26.531Z,99.90
2018-09-28T05:52:57.340Z,99.90
2018-09-28T05:55:27.941Z,99.90
2018-09-28T05:58:03.983Z,99.90
2018-09-28T06:00:39.898Z,99.90
2018-09-28T06:03:12.964Z,99.90
2018-09-28T06:05:45.768Z,99.90
2018-09-28T06:08:16.840Z,99.90
2018-09-28T06:10:47.427Z,99.90
2018-09-28T06:13:18.415Z,99.90
2018-09-28T06:15:51.082Z,99.90
2018-09-28T06:18:21.432Z,99.90
2018-09-28T06:20:52.182Z,99.90
2018-09-28T06:23:22.596Z,99.90
2018-09-28T06:25:54.148Z,99.90
2018-09-28T06:28:24.559Z,99.90
2018-09-28T06:30:54.950Z,99.90
2018-09-28T06:33:25.171Z,99.90
2018-09-28T06:35:55.697Z,99.90
2018-09-28T06:38:25.982Z,99.90
2018-09-28T06:40:56.682Z,99.90
2018-09-28T06:43:26.805Z,99.90
2018-09-28T06:45:57.022Z,99.90
2018-09-28T06:48:27.187Z,99.90
2018-09-28T06:50:57.409Z,99.90
2018-09-28T06:53:27.729Z,99.90
2018-09-28T06:55:58.336Z,99.90
2018-09-28T06:58:28.845Z,99.90
2018-09-28T07:00:59.386Z,99.90
2018-09-28T07:03:29.551Z,99.90
2018-09-28T07:05:59.995Z,99.90
2018-09-28T07:08:30.294Z,99.90
2018-09-28T07:11:01.166Z,93.00
2018-09-28T07:13:31.651Z,85.10
2018-09-28T07:16:04.432Z,70.50
2018-09-28T07:18:35.794Z,91.30
2018-09-28T07:21:06.620Z,68.20
2018-09-28T07:23:37.376Z,63.10
2018-09-28T07:26:08.369Z,40.40
2018-09-28T07:28:38.954Z,35.90
2018-09-28T07:31:09.718Z,45.60
2018-09-28T07:33:40.315Z,44.60
2018-09-28T07:36:11.051Z,31.70
2018-09-28T07:38:41.521Z,29.50
2018-09-28T07:41:11.936Z,23.30
2018-09-28T07:43:43.731Z,10.80
2018-09-28T07:46:14.496Z,12.70
2018-09-28T07:48:45.302Z,31.70
2018-09-28T07:51:16.747Z,34.00
2018-09-28T07:53:47.194Z,10.30
2018-09-28T07:56:19.228Z,2.80
2018-09-28T07:58:49.542Z,1.00
2018-09-28T08:01:21.634Z,1.00
2018-09-28T08:03:52.881Z,1.00
2018-09-28T08:06:23.878Z,1.00
2018-09-28T08:08:54.108Z,1.00
2018-09-28T08:11:25.607Z,1.00
2018-09-28T08:13:56.062Z,1.00
2018-09-28T08:16:26.942Z,1.00
2018-09-28T08:18:57.340Z,5.00
2018-09-28T08:21:27.577Z,1.00
2018-09-28T08:23:58.208Z,2.20
2018-09-28T08:26:28.765Z,1.00
2018-09-28T08:29:01.526Z,10.10
2018-09-28T08:31:32.500Z,1.00
2018-09-28T08:34:05.185Z,1.00
2018-09-28T08:36:36.086Z,1.00
2018-09-28T08:39:09.166Z,17.40
2018-09-28T08:41:40.274Z,1.00
2018-09-28T08:44:10.881Z,8.10
2018-09-28T08:46:41.212Z,10.30
2018-09-28T08:49:12.184Z,1.00
2018-09-28T08:51:42.418Z,1.00
2018-09-28T08:54:12.771Z,1.00
2018-09-28T08:56:43.539Z,1.00
2018-09-28T08:59:13.846Z,1.00
2018-09-28T09:01:44.894Z,1.00
2018-09-28T09:04:15.008Z,1.00
2018-09-28T09:06:46.114Z,1.00
2018-09-28T09:09:16.900Z,1.00
2018-09-28T09:11:47.709Z,1.00
2018-09-28T09:14:17.953Z,1.00
2018-09-28T09:16:49.131Z,1.00
2018-09-28T09:19:20.387Z,1.00
2018-09-28T09:21:51.382Z,1.00
2018-09-28T09:24:22.271Z,1.00
2018-09-28T09:26:53.092Z,1.00
2018-09-28T09:29:24.259Z,1.00
2018-09-28T09:31:55.644Z,1.00
2018-09-28T09:34:27.006Z,1.00
2018-09-28T09:37:01.620Z,1.00
2018-09-28T09:39:32.438Z,1.00
2018-09-28T09:42:02.745Z,1.00
2018-09-28T09:44:33.143Z,1.00
2018-09-28T09:47:04.289Z,1.00
2018-09-28T09:49:35.539Z,1.00
2018-09-28T09:52:06.932Z,1.00
2018-09-28T09:54:38.264Z,1.00
2018-09-28T09:57:09.147Z,1.00
2018-09-28T09:59:39.807Z,1.00
2018-09-28T10:05:26.500Z,1.00
2018-09-28T10:07:58.793Z,1.00
2018-09-28T10:17:26.840Z,1.00
2018-09-28T10:20:02.262Z,1.00
2018-09-28T10:22:51.892Z,1.00
2018-09-28T10:25:25.049Z,1.00
2018-09-28T10:28:10.317Z,1.00
2018-09-28T10:31:09.051Z,1.00
2018-09-28T10:33:58.530Z,1.00
2018-09-28T10:36:31.739Z,1.00
2018-09-28T10:39:15.251Z,1.00
2018-09-28T10:41:50.653Z,1.00
